Terminal Aerodrome Forecast
Issued by NWS Sterling, VA

Current Version | Previous Version | Text Only | Print | Product List | Glossary Off
Versions: 1 2 3 4 5 6 7 8 9 10 11 12 13 14 15 16 17 18 19 20 21 22 23 24 25 26 27 28

000
FTUS41 KLWX 030900 AAA
TAFDCA
TAF AMD
KDCA 030900Z 0309/0406 01005KT P6SM OVC250
     FM031500 15007KT P6SM OVC080
     FM031700 16007KT 6SM BR OVC040
      TEMPO 0317/0321 5SM -SNPL OVC030
     FM032100 17007KT 2SM BR OVC015
      TEMPO 0321/0324 2SM -RA BR=

USA.gov is the U.S. government's official web portal to all federal, state and local government web resources and services.